Time;durP1;ratioP1;P1;durP2;ratioP2;P2;SDS_P1;SDS_P2;PMS_P1;PMS_P2;Temp;Humidity;BMP_temperature;BMP_pressure;BME280_temperature;BME280_humidity;BME280_pressure;Samples;Min_cycle;Max_cycle;Signal;HPM_P1;HPM_P2
2022/06/17 00:00:59;;;;;;;11.93;3.90;;;26.40;78.00;;;;;;4879718;29;20057;-79
2022/06/17 00:03:27;;;;;;;17.70;3.90;;;26.40;78.50;;;;;;4879592;29;20035;-80
2022/06/17 00:05:55;;;;;;;11.50;5.05;;;26.40;78.90;;;;;;4872831;29;20057;-80
2022/06/17 00:08:33;;;;;;;15.15;5.82;;;26.40;78.90;;;;;;4860850;29;20033;-79
2022/06/17 00:10:58;;;;;;;14.48;5.93;;;26.40;79.10;;;;;;4860939;29;20034;-79
2022/06/17 00:13:24;;;;;;;17.98;6.63;;;26.30;79.20;;;;;;4877388;29;20489;-79
2022/06/17 00:15:51;;;;;;;16.13;5.60;;;26.30;79.70;;;;;;4879609;29;20056;-79
2022/06/17 00:18:19;;;;;;;22.20;6.43;;;26.20;80.30;;;;;;4879198;29;20121;-79
2022/06/17 00:20:46;;;;;;;16.98;6.40;;;26.30;80.50;;;;;;4879142;29;20029;-79
2022/06/17 00:23:15;;;;;;;16.80;6.80;;;26.20;80.10;;;;;;4879481;29;20025;-79
2022/06/17 00:25:45;;;;;;;17.23;6.97;;;26.10;79.60;;;;;;4867054;29;20231;-80
2022/06/17 00:28:20;;;;;;;26.25;6.10;;;26.00;79.30;;;;;;4860668;29;20499;-79
2022/06/17 00:30:47;;;;;;;14.05;5.25;;;26.00;79.50;;;;;;4855253;29;20108;-79
2022/06/17 00:33:14;;;;;;;12.52;4.30;;;25.90;79.60;;;;;;4859509;29;20517;-79
2022/06/17 00:35:44;;;;;;;11.85;4.47;;;25.90;79.80;;;;;;4860028;29;20033;-79
2022/06/17 00:38:13;;;;;;;12.98;4.18;;;25.90;80.00;;;;;;4860301;29;20497;-79
2022/06/17 00:40:39;;;;;;;13.73;3.75;;;25.90;81.30;;;;;;4860846;29;20036;-79
2022/06/17 00:43:10;;;;;;;13.90;4.85;;;25.80;81.80;;;;;;4860431;29;20025;-79
2022/06/17 00:45:43;;;;;;;17.85;5.00;;;25.80;80.90;;;;;;4860160;29;20061;-79
2022/06/17 00:48:15;;;;;;;14.23;4.80;;;25.80;80.70;;;;;;4863184;29;20036;-79
2022/06/17 00:50:44;;;;;;;;;;;25.70;81.10;;;;;;4856876;29;20081;-79
2022/06/17 00:53:22;;;;;;;13.32;4.68;;;25.80;81.90;;;;;;4850217;29;19969;-79
2022/06/17 00:56:03;;;;;;;15.38;4.85;;;25.70;82.00;;;;;;4860154;29;20036;-79
2022/06/17 00:58:31;;;;;;;23.45;5.03;;;25.70;81.90;;;;;;4860230;29;20026;-78
2022/06/17 01:01:00;;;;;;;16.17;4.35;;;25.70;82.00;;;;;;4859241;29;20410;-79
2022/06/17 01:03:36;;;;;;;19.00;4.80;;;25.60;83.00;;;;;;4857031;29;20033;-79
2022/06/17 01:06:08;;;;;;;22.60;5.00;;;25.60;83.30;;;;;;4859077;29;20049;-79
2022/06/17 01:11:39;;;;;;;11.70;4.53;;;25.40;84.10;;;;;;4841603;29;20113;-79
2022/06/17 01:14:08;;;;;;;20.55;5.00;;;25.50;83.30;;;;;;4849685;29;20033;-79
2022/06/17 01:16:36;;;;;;;13.18;4.72;;;25.50;84.10;;;;;;4860249;29;20108;-79
2022/06/17 01:19:09;;;;;;;19.95;5.22;;;25.50;83.90;;;;;;4859516;29;20077;-79
2022/06/17 01:21:51;;;;;;;21.35;5.00;;;25.40;84.10;;;;;;4876154;29;20081;-79
2022/06/17 01:24:18;;;;;;;20.08;4.72;;;25.40;84.30;;;;;;4878264;29;20112;-79
2022/06/17 01:26:45;;;;;;;16.05;4.32;;;25.40;84.20;;;;;;4878417;29;20024;-79
2022/06/17 01:29:13;;;;;;;13.80;4.47;;;25.30;83.90;;;;;;4878186;29;20035;-79
2022/06/17 01:31:47;;;;;;;17.42;4.97;;;25.30;84.10;;;;;;4878808;29;20419;-80
2022/06/17 01:34:14;;;;;;;19.65;4.82;;;25.20;84.10;;;;;;4876431;29;20029;-79
2022/06/17 01:36:42;;;;;;;21.20;4.70;;;25.20;84.30;;;;;;4877062;29;20025;-79
2022/06/17 01:39:08;;;;;;;20.13;5.13;;;25.20;84.70;;;;;;4878305;29;20037;-78
2022/06/17 01:41:34;;;;;;;15.07;4.45;;;25.20;85.20;;;;;;4876830;29;20036;-79
2022/06/17 01:44:08;;;;;;;13.43;4.40;;;25.20;85.50;;;;;;4876712;29;20037;-78
2022/06/17 01:46:38;;;;;;;15.77;4.68;;;25.10;85.40;;;;;;4878335;29;20033;-80
2022/06/17 01:49:10;;;;;;;13.82;4.60;;;25.10;85.70;;;;;;4862419;29;20083;-80
2022/06/17 01:51:40;;;;;;;18.85;5.25;;;25.20;85.90;;;;;;4859516;29;20029;-80
2022/06/17 01:54:10;;;;;;;15.88;4.13;;;25.20;86.50;;;;;;4859425;29;20077;-79
2022/06/17 01:56:38;;;;;;;20.13;5.35;;;25.10;87.10;;;;;;4859774;29;20025;-78
2022/06/17 01:59:27;;;;;;;16.48;5.13;;;25.10;87.80;;;;;;4859528;29;20037;-79
2022/06/17 02:01:56;;;;;;;13.80;4.30;;;25.20;88.30;;;;;;4855914;29;20061;-79
2022/06/17 02:04:27;;;;;;;21.75;5.47;;;25.20;89.00;;;;;;4840466;29;20110;-78
2022/06/17 02:07:04;;;;;;;24.50;5.22;;;25.20;89.50;;;;;;4854589;29;20157;-79
2022/06/17 02:09:30;;;;;;;27.88;5.70;;;25.20;89.70;;;;;;4858625;29;20029;-78
2022/06/17 02:11:59;;;;;;;16.48;5.30;;;25.10;90.20;;;;;;4859385;29;20032;-79
2022/06/17 02:14:24;;;;;;;19.65;5.13;;;25.10;90.30;;;;;;4859059;29;20029;-78
2022/06/17 02:16:53;;;;;;;18.48;4.65;;;25.20;90.40;;;;;;4859199;29;20037;-78
2022/06/17 02:19:24;;;;;;;16.23;4.45;;;25.00;90.70;;;;;;4859456;29;20039;-79
2022/06/17 02:22:23;;;;;;;11.80;3.97;;;24.80;91.10;;;;;;4863463;29;20026;-78
2022/06/17 02:24:50;;;;;;;28.70;5.20;;;24.90;91.00;;;;;;4862739;29;20029;-78
2022/06/17 02:27:18;;;;;;;23.60;5.25;;;25.00;91.00;;;;;;4877051;29;20390;-78
2022/06/17 02:29:45;;;;;;;19.33;5.53;;;25.00;91.10;;;;;;4862284;29;20038;-78
2022/06/17 02:32:11;;;;;;;19.95;5.03;;;24.90;91.30;;;;;;4862467;29;20032;-79
2022/06/17 02:34:53;;;;;;;17.30;5.00;;;25.00;91.10;;;;;;4862553;29;20056;-79
2022/06/17 02:37:19;;;;;;;24.85;5.63;;;24.90;91.50;;;;;;4862845;29;20542;-78
2022/06/17 02:39:49;;;;;;;19.88;4.78;;;24.90;91.40;;;;;;4862376;29;20059;-78
2022/06/17 02:42:36;;;;;;;16.35;4.63;;;24.90;91.20;;;;;;4876106;29;20057;-79
2022/06/17 02:45:07;;;;;;;13.55;4.97;;;25.00;91.30;;;;;;4880733;29;20077;-79
2022/06/17 02:47:33;;;;;;;18.77;5.23;;;24.90;91.50;;;;;;4880226;29;20040;-78
2022/06/17 02:49:59;;;;;;;18.02;4.57;;;24.90;91.60;;;;;;4881424;29;20029;-78
2022/06/17 02:52:38;;;;;;;13.88;4.78;;;24.80;91.80;;;;;;4880730;29;20040;-78
2022/06/17 02:55:11;;;;;;;19.63;4.75;;;24.80;91.90;;;;;;4879710;29;20120;-79
2022/06/17 02:57:39;;;;;;;13.68;4.30;;;24.80;92.00;;;;;;4880925;29;20029;-78
2022/06/17 03:00:31;;;;;;;17.60;4.38;;;24.70;91.90;;;;;;4880628;29;20386;-79
2022/06/17 03:03:00;;;;;;;;;;;24.70;92.00;;;;;;4875385;29;20459;-78
2022/06/17 03:05:29;;;;;;;20.40;4.57;;;24.70;91.90;;;;;;4861721;29;19915;-79
2022/06/17 03:07:57;;;;;;;15.63;4.53;;;24.70;91.90;;;;;;4861830;29;20473;-79
2022/06/17 03:10:40;;;;;;;24.58;5.80;;;24.70;92.10;;;;;;4878471;29;20037;-79
2022/06/17 03:13:34;;;;;;;17.90;6.00;;;24.70;92.50;;;;;;4880289;29;20025;-78
2022/06/17 03:16:02;;;;;;;18.15;5.15;;;24.60;92.90;;;;;;4880224;29;20439;-78
2022/06/17 03:18:29;;;;;;;19.73;4.88;;;24.50;93.40;;;;;;4880165;29;20025;-78
2022/06/17 03:20:55;;;;;;;18.63;5.55;;;24.50;93.70;;;;;;4880727;29;20029;-78
2022/06/17 03:23:47;;;;;;;15.32;5.25;;;24.30;94.20;;;;;;4880327;29;20102;-79
2022/06/17 03:26:17;;;;;;;22.30;5.85;;;24.40;94.50;;;;;;4880121;29;20049;-78
2022/06/17 03:28:46;;;;;;;25.50;5.82;;;24.30;95.20;;;;;;4879960;29;20052;-78
2022/06/17 03:31:45;;;;;;;22.52;5.22;;;24.30;95.40;;;;;;4879614;29;20029;-78
2022/06/17 03:34:20;;;;;;;25.88;5.35;;;24.30;95.60;;;;;;4872886;29;20037;-78
2022/06/17 03:37:11;;;;;;;15.43;5.55;;;24.20;95.50;;;;;;4878176;29;20157;-78
2022/06/17 03:39:45;;;;;;;21.33;4.83;;;24.20;95.60;;;;;;4879888;29;20056;-78
2022/06/17 03:42:20;;;;;;;20.80;5.20;;;24.20;95.80;;;;;;4880563;29;20032;-79
2022/06/17 03:45:00;;;;;;;14.68;5.55;;;24.10;95.80;;;;;;4879760;29;20474;-78
2022/06/17 03:47:41;;;;;;;12.32;5.05;;;24.10;95.80;;;;;;4879610;29;20026;-78
2022/06/17 03:50:25;;;;;;;15.87;5.23;;;24.10;95.50;;;;;;4879669;29;20156;-78
2022/06/17 03:53:26;;;;;;;12.52;5.13;;;24.20;95.50;;;;;;4879586;29;20797;-78
2022/06/17 03:55:54;;;;;;;22.70;5.70;;;24.10;95.50;;;;;;4867094;29;20037;-78
2022/06/17 03:58:22;;;;;;;17.92;6.00;;;24.10;95.60;;;;;;4879589;29;20033;-78
2022/06/17 04:01:10;;;;;;;13.23;5.28;;;24.10;95.80;;;;;;4880003;29;20085;-80
2022/06/17 04:03:39;;;;;;;18.17;5.32;;;24.00;96.10;;;;;;4878927;29;20032;-80
2022/06/17 04:06:17;;;;;;;13.70;5.00;;;24.00;96.10;;;;;;4860043;29;20057;-79
2022/06/17 04:08:54;;;;;;;24.38;4.97;;;23.90;96.30;;;;;;4860761;29;20482;-80
2022/06/17 04:11:23;;;;;;;20.27;5.35;;;23.90;96.30;;;;;;4861051;29;20496;-80
2022/06/17 04:13:49;;;;;;;12.00;4.75;;;23.80;96.40;;;;;;4860597;29;20536;-80
2022/06/17 04:16:46;;;;;;;15.30;4.80;;;23.80;96.50;;;;;;4860719;29;20029;-80
2022/06/17 04:19:17;;;;;;;16.80;5.35;;;23.80;96.80;;;;;;4860052;29;20033;-80
2022/06/17 04:21:43;;;;;;;;;;;23.80;96.40;;;;;;4860877;29;20149;-79
2022/06/17 04:24:15;;;;;;;17.33;5.10;;;23.70;96.60;;;;;;4861698;29;20425;-77
2022/06/17 04:26:42;;;;;;;18.10;5.13;;;23.70;96.70;;;;;;4860991;29;20025;-78
2022/06/17 04:29:15;;;;;;;16.77;4.82;;;23.70;96.70;;;;;;4860446;29;20053;-79
2022/06/17 04:31:43;;;;;;;21.05;6.43;;;23.60;96.90;;;;;;4859665;29;20033;-79
2022/06/17 04:34:16;;;;;;;17.65;5.00;;;23.70;96.80;;;;;;4863641;29;20482;-78
2022/06/17 04:36:55;;;;;;;15.00;4.95;;;23.60;96.90;;;;;;4860076;29;20053;-79
2022/06/17 04:39:27;;;;;;;15.68;4.60;;;23.70;97.20;;;;;;4858511;29;20493;-80
2022/06/17 04:41:55;;;;;;;13.02;4.80;;;23.60;97.00;;;;;;4859450;29;20026;-79
2022/06/17 04:44:21;;;;;;;19.77;5.68;;;23.60;97.30;;;;;;4865412;29;20037;-75
2022/06/17 04:47:02;;;;;;;21.80;5.03;;;23.60;97.10;;;;;;4872511;29;20025;-80
2022/06/17 04:49:31;;;;;;;17.15;5.00;;;23.60;96.90;;;;;;4864041;29;20058;-79
2022/06/17 04:52:13;;;;;;;23.65;5.10;;;23.60;97.00;;;;;;4861771;29;20112;-78
2022/06/17 04:54:40;;;;;;;15.48;4.90;;;23.60;96.80;;;;;;4859927;29;20053;-76
2022/06/17 04:57:06;;;;;;;10.95;3.85;;;23.60;96.20;;;;;;4860063;29;20481;-76
2022/06/17 04:59:40;;;;;;;12.57;4.93;;;23.70;95.20;;;;;;4859883;29;20030;-79
2022/06/17 05:02:14;;;;;;;21.48;4.80;;;23.70;95.20;;;;;;4858420;29;20428;-80
2022/06/17 05:04:41;;;;;;;14.30;3.95;;;23.70;95.60;;;;;;4859679;29;20045;-80
2022/06/17 05:07:07;;;;;;;17.45;4.35;;;23.70;95.90;;;;;;4858701;29;20165;-80
2022/06/17 05:09:44;;;;;;;18.45;4.10;;;23.70;95.50;;;;;;4859183;29;20037;-79
2022/06/17 05:12:21;;;;;;;15.32;4.40;;;23.60;95.40;;;;;;4853253;29;20105;-79
2022/06/17 05:14:52;;;;;;;14.95;4.28;;;23.60;95.50;;;;;;4859789;29;20036;-79
2022/06/17 11:29:33;;;;;;;14.48;3.63;;;37.10;50.20;;;;;;5194324;23;20417;-77
2022/06/17 11:32:20;;;;;;;14.10;3.72;;;37.30;50.00;;;;;;4862983;29;20037;-78
2022/06/17 11:34:54;;;;;;;13.13;3.70;;;37.00;48.60;;;;;;4859463;29;20044;-77
2022/06/17 11:37:39;;;;;;;14.75;3.92;;;36.80;46.40;;;;;;4858282;29;20060;-77
2022/06/17 11:40:26;;;;;;;11.32;3.70;;;36.70;46.90;;;;;;4862009;29;20082;-77
2022/06/17 11:42:58;;;;;;;14.02;3.78;;;36.90;48.40;;;;;;4859318;29;20037;-79
2022/06/17 11:45:40;;;;;;;17.33;4.72;;;37.20;45.80;;;;;;4862133;29;20030;-78
2022/06/17 11:48:18;;;;;;;10.57;4.07;;;37.30;46.70;;;;;;4871549;29;20025;-76
2022/06/17 11:51:07;;;;;;;14.88;3.60;;;37.40;44.50;;;;;;4860865;29;20046;-77
2022/06/17 11:53:44;;;;;;;10.20;3.20;;;37.20;44.70;;;;;;4847699;29;20090;-76
2022/06/17 11:56:11;;;;;;;13.32;3.65;;;37.30;45.20;;;;;;4880338;29;20061;-77
2022/06/17 11:58:54;;;;;;;11.02;3.60;;;37.20;46.90;;;;;;4863082;29;20053;-77
2022/06/17 12:01:20;;;;;;;21.30;4.03;;;37.40;45.90;;;;;;4863582;29;20029;-76
2022/06/17 12:03:46;;;;;;;13.70;3.40;;;37.70;46.30;;;;;;4860462;29;20029;-76
2022/06/17 12:06:23;;;;;;;19.98;4.03;;;37.70;45.60;;;;;;4861199;29;20120;-76
2022/06/17 12:09:00;;;;;;;15.85;3.47;;;37.80;43.60;;;;;;4859924;29;20451;-77
2022/06/17 12:11:55;;;;;;;18.50;4.15;;;38.10;44.70;;;;;;4858955;29;20048;-76
2022/06/17 12:14:45;;;;;;;16.80;4.20;;;38.10;46.10;;;;;;4859352;29;20025;-76
2022/06/17 12:17:14;;;;;;;18.20;3.40;;;37.80;44.80;;;;;;4817361;29;20047;-77
2022/06/17 12:19:40;;;;;;;13.65;3.15;;;37.80;46.30;;;;;;4818052;29;20104;-77
2022/06/17 12:22:24;;;;;;;17.73;3.78;;;37.90;45.30;;;;;;4820691;29;20429;-77
2022/06/17 12:24:55;;;;;;;22.65;3.60;;;38.20;44.50;;;;;;4822028;29;20046;-77
2022/06/17 12:27:46;;;;;;;;;;;38.20;43.70;;;;;;4821244;29;20038;-77
2022/06/17 12:30:32;;;;;;;;;;;37.70;43.00;;;;;;4787271;29;19929;-76
2022/06/17 12:33:21;;;;;;;14.15;3.55;;;37.70;43.10;;;;;;4797618;29;19959;-77
2022/06/17 12:35:55;;;;;;;21.48;4.15;;;37.50;43.80;;;;;;4803984;29;20133;-76
2022/06/17 12:38:51;;;;;;;17.98;3.97;;;38.00;43.00;;;;;;4797620;29;20034;-77
2022/06/17 12:41:43;;;;;;;23.98;4.50;;;38.40;42.20;;;;;;4787456;29;20053;-76
2022/06/17 12:44:30;;;;;;;19.42;4.10;;;38.80;40.90;;;;;;4797665;29;20499;-76
2022/06/17 12:47:10;;;;;;;18.85;3.83;;;38.50;40.90;;;;;;4786763;29;20039;-76
2022/06/17 12:55:45;;;;;;;13.82;3.95;;;39.30;42.40;;;;;;4838024;29;20110;-77
2022/06/17 12:58:43;;;;;;;21.20;4.05;;;38.70;41.10;;;;;;4838537;29;20022;-76
2022/06/17 13:01:16;;;;;;;13.10;3.80;;;38.60;40.80;;;;;;4800560;29;20105;-76
2022/06/17 13:04:24;;;;;;;19.92;4.65;;;38.80;41.40;;;;;;4834787;29;20046;-76
2022/06/17 13:06:59;;;;;;;16.23;3.55;;;38.70;40.90;;;;;;4803020;29;20027;-77
2022/06/17 13:09:28;;;;;;;23.00;4.28;;;38.70;40.30;;;;;;4800905;29;20035;-76
2022/06/17 13:12:15;;;;;;;12.90;3.90;;;38.30;40.70;;;;;;4803224;29;20565;-77
2022/06/17 13:15:02;;;;;;;20.42;5.18;;;38.40;40.90;;;;;;4801581;29;20568;-77
2022/06/17 13:17:51;;;;;;;22.60;4.38;;;38.60;39.80;;;;;;4806269;29;20038;-76
2022/06/17 13:20:51;;;;;;;20.13;4.45;;;38.70;38.90;;;;;;4799596;29;20185;-78
2022/06/17 13:23:29;;;;;;;21.20;4.85;;;38.90;38.90;;;;;;4749518;30;20072;-77
2022/06/17 13:26:01;;;;;;;16.58;4.50;;;38.50;38.20;;;;;;4752783;30;20044;-77
2022/06/17 13:28:52;;;;;;;20.20;4.00;;;38.50;38.20;;;;;;4760652;30;20121;-77
2022/06/17 13:31:27;;;;;;;26.08;4.45;;;38.60;38.90;;;;;;4747475;30;20036;-76
2022/06/17 13:34:02;;;;;;;16.23;3.85;;;38.70;39.10;;;;;;4756990;30;20052;-77
2022/06/17 13:36:58;;;;;;;26.80;4.05;;;38.70;39.00;;;;;;4753444;30;20512;-77
2022/06/17 13:39:27;;;;;;;25.15;4.05;;;38.90;38.50;;;;;;4756680;30;20118;-77
2022/06/17 13:42:07;;;;;;;15.57;4.38;;;39.20;37.30;;;;;;4763949;30;20040;-77
2022/06/17 13:44:47;;;;;;;21.38;4.65;;;39.00;37.10;;;;;;4775826;30;20516;-77
2022/06/17 13:47:24;;;;;;;23.55;5.13;;;39.00;37.80;;;;;;4770493;30;20035;-77
2022/06/17 13:50:17;;;;;;;24.40;4.55;;;39.10;38.40;;;;;;4770501;30;20039;-77
2022/06/17 13:53:11;;;;;;;21.48;4.65;;;39.00;38.40;;;;;;4771738;30;20046;-77
2022/06/17 13:55:53;;;;;;;22.02;4.85;;;38.60;36.90;;;;;;4768731;30;20043;-77
2022/06/17 13:58:30;;;;;;;17.30;4.45;;;38.60;37.30;;;;;;4769999;30;20027;-77
2022/06/17 14:01:04;;;;;;;22.23;3.38;;;38.80;37.70;;;;;;4831322;29;20098;-77
2022/06/17 14:03:54;;;;;;;27.25;4.60;;;38.80;37.30;;;;;;4836853;29;20023;-77
2022/06/17 14:06:27;;;;;;;18.75;4.53;;;39.00;37.90;;;;;;4837694;29;20033;-77
2022/06/17 14:08:57;;;;;;;28.95;4.80;;;39.00;36.30;;;;;;4844072;29;20033;-76
2022/06/17 14:11:39;;;;;;;26.17;5.60;;;38.90;36.40;;;;;;4835997;29;20026;-77
2022/06/17 14:14:42;;;;;;;28.20;4.88;;;38.50;35.50;;;;;;4838669;29;20055;-77
2022/06/17 14:17:13;;;;;;;26.90;5.13;;;38.40;34.80;;;;;;4807458;29;20434;-77
2022/06/17 14:19:47;;;;;;;24.05;5.10;;;38.60;36.20;;;;;;4811670;29;20085;-77
2022/06/17 14:22:35;;;;;;;26.15;6.80;;;38.60;35.60;;;;;;4795251;29;20031;-77
2022/06/17 14:25:10;;;;;;;31.05;6.28;;;38.80;35.60;;;;;;4810593;29;20041;-77
2022/06/17 14:27:35;;;;;;;31.73;4.35;;;39.00;34.00;;;;;;4817758;29;20034;-77
2022/06/17 14:30:16;;;;;;;29.80;4.90;;;39.00;33.40;;;;;;4774170;29;20585;-77
2022/06/17 14:32:47;;;;;;;29.48;5.35;;;38.80;34.90;;;;;;4808892;29;20381;-77
2022/06/17 14:35:28;;;;;;;37.25;5.70;;;38.70;35.10;;;;;;4804991;29;20047;-78
2022/06/17 14:38:12;;;;;;;27.87;5.77;;;38.30;34.40;;;;;;4806867;29;20566;-77
2022/06/17 14:43:33;;;;;;;31.98;5.60;;;38.70;34.50;;;;;;4803934;29;20053;-77
2022/06/17 14:46:01;;;;;;;24.85;5.43;;;38.70;33.80;;;;;;4811471;29;20031;-76
2022/06/17 14:48:37;;;;;;;35.58;5.50;;;38.80;34.20;;;;;;4804616;29;20065;-76
2022/06/17 14:51:05;;;;;;;33.33;5.78;;;38.90;34.10;;;;;;4831477;29;20050;-76
2022/06/17 14:53:34;;;;;;;37.28;6.32;;;38.70;30.00;;;;;;4841487;29;20066;-77
2022/06/17 14:56:14;;;;;;;37.38;5.93;;;38.90;31.10;;;;;;4843800;29;20022;-77
2022/06/17 14:58:56;;;;;;;30.40;6.05;;;38.90;32.40;;;;;;4841213;29;20037;-79
2022/06/17 15:01:34;;;;;;;27.70;6.50;;;39.00;32.20;;;;;;4842193;29;20022;-76
2022/06/17 15:04:21;;;;;;;36.63;6.47;;;38.90;31.50;;;;;;4841907;29;20490;-78
2022/06/17 15:06:48;;;;;;;29.27;5.95;;;38.70;31.40;;;;;;4844285;29;20034;-77
2022/06/17 15:09:30;;;;;;;28.38;5.43;;;38.50;33.50;;;;;;4840771;29;20021;-76
2022/06/17 15:12:16;;;;;;;33.92;5.38;;;38.40;33.70;;;;;;4842608;29;20038;-76
2022/06/17 15:14:45;;;;;;;23.88;5.72;;;38.60;33.80;;;;;;4840812;29;20470;-77
2022/06/17 15:17:37;;;;;;;23.60;5.45;;;38.50;32.40;;;;;;4841701;29;20030;-76
2022/06/17 15:20:22;;;;;;;38.65;6.22;;;38.30;32.10;;;;;;4839331;29;20034;-76
2022/06/17 15:23:12;;;;;;;33.47;6.75;;;38.50;32.40;;;;;;4841983;29;20517;-76
2022/06/17 15:26:05;;;;;;;27.20;5.47;;;38.60;32.50;;;;;;4845656;29;20082;-76
2022/06/17 15:28:45;;;;;;;32.05;5.75;;;38.60;32.80;;;;;;4843726;29;20060;-77
2022/06/17 15:31:14;;;;;;;30.92;7.18;;;38.70;32.70;;;;;;4842432;29;20038;-76
2022/06/17 15:33:45;;;;;;;33.33;6.70;;;38.60;32.30;;;;;;4843047;29;20052;-76
2022/06/17 15:36:25;;;;;;;41.97;6.20;;;38.70;31.50;;;;;;4842742;29;20057;-76
2022/06/17 15:38:58;;;;;;;34.53;7.07;;;38.60;32.30;;;;;;4843114;29;20030;-76
2022/06/17 15:41:30;;;;;;;32.40;5.68;;;38.60;32.50;;;;;;4843014;29;20038;-76
2022/06/17 15:44:14;;;;;;;31.92;5.53;;;38.50;32.70;;;;;;4843822;29;20026;-76
2022/06/17 15:46:40;;;;;;;35.72;6.88;;;38.50;32.50;;;;;;4826960;29;20042;-77
2022/06/17 15:49:13;;;;;;;27.80;5.18;;;38.60;33.40;;;;;;4843437;29;20078;-77
2022/06/17 15:52:08;;;;;;;37.85;6.93;;;38.30;32.30;;;;;;4843103;29;20038;-76
2022/06/17 15:54:34;;;;;;;34.10;6.22;;;38.30;32.60;;;;;;4817999;29;20500;-76
2022/06/17 15:57:00;;;;;;;38.20;5.55;;;38.20;33.40;;;;;;4838491;29;20474;-77
2022/06/17 15:59:31;;;;;;;29.52;5.85;;;38.40;32.90;;;;;;4842368;29;20495;-76
2022/06/17 16:02:02;;;;;;;32.83;5.60;;;38.30;33.10;;;;;;4843186;29;20030;-76
2022/06/17 16:04:38;;;;;;;42.33;6.88;;;38.30;32.60;;;;;;4841984;29;20037;-77
2022/06/17 16:07:06;;;;;;;31.30;6.88;;;38.40;32.40;;;;;;4842859;29;20037;-78
2022/06/17 16:09:32;;;;;;;32.10;5.93;;;38.40;33.20;;;;;;4842836;29;20030;-76
2022/06/17 16:12:19;;;;;;;35.38;7.20;;;38.30;31.70;;;;;;4843155;29;20034;-76
2022/06/17 16:14:59;;;;;;;37.35;5.70;;;38.30;31.50;;;;;;4828961;29;20026;-78
2022/06/17 16:17:33;;;;;;;36.50;7.53;;;38.10;31.40;;;;;;4839561;29;20113;-76
2022/06/17 16:20:01;;;;;;;30.30;5.72;;;38.20;30.90;;;;;;4842067;29;20428;-75
2022/06/17 16:22:30;;;;;;;36.50;6.55;;;38.10;31.20;;;;;;4841709;29;20034;-78
2022/06/17 16:24:59;;;;;;;39.08;5.95;;;38.10;31.60;;;;;;4842258;29;20051;-78
2022/06/17 16:27:30;;;;;;;30.60;7.00;;;38.00;31.80;;;;;;4842035;29;20029;-78
2022/06/17 16:30:03;;;;;;;33.20;5.93;;;38.10;33.30;;;;;;4840549;29;20137;-78
2022/06/17 16:32:31;;;;;;;44.10;7.85;;;37.70;31.00;;;;;;4843686;29;20493;-78
2022/06/17 16:34:57;;;;;;;40.28;6.78;;;37.70;32.00;;;;;;4835230;29;20406;-78
2022/06/17 16:37:56;;;;;;;44.67;6.70;;;37.60;31.30;;;;;;4842131;29;20109;-77
2022/06/17 16:46:28;;;;;;;28.42;6.10;;;38.00;33.00;;;;;;4795916;29;20091;-78
2022/06/17 16:48:58;;;;;;;29.63;6.72;;;37.90;32.20;;;;;;4808688;29;20047;-77
2022/06/17 16:51:25;;;;;;;35.45;6.20;;;37.70;32.00;;;;;;4802250;29;20035;-77
2022/06/17 16:53:51;;;;;;;42.53;6.22;;;37.70;32.40;;;;;;4802101;29;20042;-75
2022/06/17 16:56:22;;;;;;;34.75;6.45;;;37.70;32.00;;;;;;4795786;29;20121;-77
2022/06/17 16:58:48;;;;;;;30.73;6.90;;;37.70;33.10;;;;;;4803053;29;20083;-78
2022/06/17 17:01:17;;;;;;;37.60;6.85;;;37.80;33.40;;;;;;4802547;29;20547;-78
2022/06/17 17:03:43;;;;;;;31.13;6.28;;;37.70;32.90;;;;;;4800085;29;20055;-78
2022/06/17 17:06:08;;;;;;;32.58;6.53;;;37.60;32.60;;;;;;4794924;29;20038;-78
2022/06/17 17:08:34;;;;;;;38.75;6.82;;;37.50;31.80;;;;;;4803015;29;20421;-78
2022/06/17 17:11:00;;;;;;;40.45;5.35;;;37.50;31.80;;;;;;4803058;29;20101;-78
2022/06/17 17:13:26;;;;;;;38.03;7.47;;;37.50;30.30;;;;;;4802870;29;20038;-78
2022/06/17 17:15:51;;;;;;;33.35;6.63;;;37.50;31.70;;;;;;4819568;29;20428;-77
2022/06/17 17:18:17;;;;;;;39.53;6.80;;;37.50;31.70;;;;;;4841729;29;20030;-77
2022/06/17 17:20:50;;;;;;;35.90;6.47;;;37.50;32.70;;;;;;4841558;29;20058;-77
2022/06/17 17:23:19;;;;;;;28.42;6.10;;;37.40;30.00;;;;;;4841726;29;20026;-77
2022/06/17 17:25:48;;;;;;;37.22;6.85;;;37.30;30.90;;;;;;4841434;29;20030;-77
2022/06/17 17:28:15;;;;;;;48.67;6.65;;;37.20;32.00;;;;;;4834616;29;20046;-78
2022/06/17 17:30:43;;;;;;;33.45;6.72;;;37.20;31.10;;;;;;4849767;29;20477;-78
2022/06/17 17:33:10;;;;;;;47.15;7.93;;;37.20;31.60;;;;;;4841437;29;20375;-78
2022/06/17 17:35:36;;;;;;;35.95;6.57;;;37.10;32.10;;;;;;4841391;29;20042;-78
2022/06/17 17:38:01;;;;;;;38.00;7.10;;;37.10;31.60;;;;;;4841209;29;20467;-78
2022/06/17 17:40:27;;;;;;;37.35;6.22;;;36.90;30.10;;;;;;4841502;29;20018;-78
2022/06/17 17:42:53;;;;;;;34.85;6.95;;;36.90;30.80;;;;;;4840574;29;20446;-77
2022/06/17 17:45:23;;;;;;;39.80;7.45;;;36.90;31.00;;;;;;4840003;29;20101;-78
2022/06/17 17:47:50;;;;;;;36.72;7.38;;;36.80;32.00;;;;;;4837958;29;20094;-77
2022/06/17 17:50:20;;;;;;;42.35;7.70;;;36.70;30.90;;;;;;4842698;29;20032;-78
2022/06/17 17:52:47;;;;;;;41.78;7.28;;;36.70;31.30;;;;;;4846575;29;20038;-78
2022/06/17 17:55:14;;;;;;;35.47;6.90;;;36.60;33.50;;;;;;4845106;29;20037;-78
2022/06/17 17:57:40;;;;;;;39.55;6.90;;;36.50;34.30;;;;;;4845262;29;20062;-77
2022/06/17 18:00:08;;;;;;;31.70;7.07;;;36.50;34.10;;;;;;4842653;29;20379;-78
2022/06/17 18:02:34;;;;;;;40.28;6.60;;;36.40;33.00;;;;;;4842291;29;20026;-78
2022/06/17 18:05:00;;;;;;;36.88;6.32;;;36.40;34.60;;;;;;4842028;29;20026;-77
2022/06/17 18:07:26;;;;;;;34.10;6.22;;;36.20;36.60;;;;;;4842292;29;20081;-78
2022/06/17 18:09:52;;;;;;;37.75;7.32;;;35.90;35.60;;;;;;4842813;29;20045;-77
2022/06/17 18:12:18;;;;;;;37.90;6.60;;;35.70;37.80;;;;;;4842340;29;20471;-78
2022/06/17 18:14:45;;;;;;;41.15;6.88;;;35.50;38.30;;;;;;4843048;29;20030;-77
2022/06/17 18:17:11;;;;;;;28.70;5.63;;;35.40;38.50;;;;;;4843508;29;20395;-77
2022/06/17 18:19:37;;;;;;;30.67;6.15;;;35.30;38.10;;;;;;4843861;29;20702;-77
2022/06/17 18:22:03;;;;;;;40.45;6.75;;;35.20;39.30;;;;;;4843569;29;20162;-76
2022/06/17 18:24:29;;;;;;;38.13;7.07;;;35.10;40.30;;;;;;4843175;29;20026;-75
2022/06/17 18:26:59;;;;;;;43.97;6.43;;;35.00;39.70;;;;;;4840749;29;21380;-77
2022/06/17 18:29:33;;;;;;;33.08;6.32;;;34.90;39.80;;;;;;4840166;29;20057;-78
2022/06/17 18:32:01;;;;;;;33.50;6.22;;;34.80;41.20;;;;;;4840447;29;20038;-77
2022/06/17 18:34:43;;;;;;;41.80;6.93;;;34.70;42.60;;;;;;4837370;29;20048;-78
2022/06/17 18:37:11;;;;;;;38.15;5.97;;;34.60;42.50;;;;;;4842648;29;20021;-79
2022/06/17 18:39:37;;;;;;;44.53;6.85;;;34.40;42.60;;;;;;4844192;29;20030;-78
2022/06/17 18:44:47;;;;;;;35.67;7.45;;;34.20;42.50;;;;;;4844534;29;20041;-78
2022/06/17 18:47:15;;;;;;;44.13;6.80;;;34.10;44.60;;;;;;4844093;29;20390;-76
2022/06/17 18:49:47;;;;;;;33.15;6.20;;;34.10;43.40;;;;;;4842043;29;20562;-79
2022/06/17 18:52:15;;;;;;;30.88;6.65;;;34.00;43.90;;;;;;4842980;29;20120;-77
2022/06/17 18:54:42;;;;;;;32.60;7.80;;;34.00;43.20;;;;;;4843224;29;20435;-78
2022/06/17 18:57:10;;;;;;;28.60;6.57;;;34.00;42.70;;;;;;4843806;29;20018;-78
2022/06/17 18:59:36;;;;;;;36.35;7.57;;;34.10;43.20;;;;;;4841716;29;20454;-77
2022/06/17 19:02:12;;;;;;;27.75;6.70;;;34.00;44.00;;;;;;4841210;29;20026;-78
2022/06/17 19:04:38;;;;;;;26.58;5.82;;;33.90;45.00;;;;;;4841055;29;20037;-78
2022/06/17 19:07:05;;;;;;;22.73;5.68;;;33.80;46.50;;;;;;4841174;29;20026;-78
2022/06/17 19:17:47;;;;;;;33.45;5.30;;;33.40;46.90;;;;;;4841524;29;20029;-77
2022/06/17 19:20:19;;;;;;;20.83;5.30;;;33.20;47.90;;;;;;4841499;29;20549;-77
2022/06/17 19:23:06;;;;;;;18.90;4.53;;;33.00;50.10;;;;;;4839963;29;20407;-77
2022/06/17 19:25:32;;;;;;;24.95;5.43;;;32.80;49.60;;;;;;4839111;29;20048;-78
2022/06/17 19:27:59;;;;;;;30.13;4.30;;;32.70;48.80;;;;;;4840322;29;20022;-76
2022/06/17 19:30:25;;;;;;;17.80;4.82;;;32.60;49.20;;;;;;4841443;29;20109;-77
2022/06/17 19:32:58;;;;;;;25.20;5.25;;;32.50;48.50;;;;;;4840780;29;20149;-77
2022/06/17 19:35:29;;;;;;;19.80;4.03;;;32.40;48.90;;;;;;4841168;29;20091;-77
2022/06/17 19:37:55;;;;;;;23.80;4.90;;;32.40;49.40;;;;;;4841061;29;20029;-76
2022/06/17 19:40:24;;;;;;;25.88;5.18;;;32.20;49.70;;;;;;4842011;29;20452;-78
2022/06/17 19:42:50;;;;;;;23.35;4.82;;;32.20;50.90;;;;;;4839700;29;20490;-76
2022/06/17 19:45:16;;;;;;;22.73;4.35;;;32.00;50.50;;;;;;4841381;29;20555;-76
2022/06/17 19:47:43;;;;;;;21.75;4.85;;;31.90;51.50;;;;;;4841822;29;20092;-77
2022/06/17 19:50:22;;;;;;;19.55;4.60;;;31.80;51.10;;;;;;4850524;29;20446;-76
2022/06/17 19:52:49;;;;;;;20.70;5.05;;;31.70;50.90;;;;;;4850407;29;20029;-76